createdAt,value
2018-12-14T00:02:14.725Z,10.75
2018-12-14T00:04:43.696Z,9.55
2018-12-14T00:07:12.520Z,11.78
2018-12-14T00:09:41.236Z,10.30
2018-12-14T00:12:09.980Z,10.30
2018-12-14T00:14:38.784Z,11.35
2018-12-14T00:17:07.627Z,10.82
2018-12-14T00:19:36.431Z,10.88
2018-12-14T00:22:08.456Z,10.50
2018-12-14T00:24:37.182Z,10.25
2018-12-14T00:27:06.025Z,10.45
2018-12-14T00:29:34.748Z,10.08
2018-12-14T00:32:03.569Z,10.82
2018-12-14T00:34:32.275Z,10.55
2018-12-14T00:37:01.623Z,10.65
2018-12-14T00:39:30.308Z,10.82
2018-12-14T00:41:59.014Z,9.78
2018-12-14T00:44:27.725Z,10.10
2018-12-14T00:46:56.598Z,10.55
2018-12-14T00:49:25.384Z,10.18
2018-12-14T00:51:54.159Z,10.38
2018-12-14T00:54:22.905Z,10.32
2018-12-14T00:56:51.638Z,10.23
2018-12-14T00:59:20.360Z,10.35
2018-12-14T01:01:49.079Z,9.85
2018-12-14T01:04:17.816Z,10.35
2018-12-14T01:06:46.593Z,10.50
2018-12-14T01:09:15.420Z,11.88
2018-12-14T01:11:44.112Z,11.45
2018-12-14T01:14:13.168Z,11.10
2018-12-14T01:16:41.981Z,11.18
2018-12-14T01:19:10.886Z,9.83
2018-12-14T01:21:39.651Z,12.23
2018-12-14T01:24:08.408Z,10.40
2018-12-14T01:26:37.103Z,9.55
2018-12-14T01:29:05.819Z,8.58
2018-12-14T01:31:34.635Z,10.00
2018-12-14T01:34:03.623Z,9.13
2018-12-14T01:36:32.380Z,10.80
2018-12-14T01:39:01.243Z,8.68
2018-12-14T01:41:29.949Z,11.33
2018-12-14T01:43:58.655Z,10.13
2018-12-14T01:46:27.344Z,9.93
2018-12-14T01:48:56.083Z,10.83
2018-12-14T01:51:24.791Z,9.78
2018-12-14T01:53:53.511Z,10.65
2018-12-14T01:56:22.329Z,10.82
2018-12-14T01:58:51.173Z,10.08
2018-12-14T02:01:19.949Z,10.55
2018-12-14T02:03:48.757Z,9.68
2018-12-14T02:06:17.528Z,9.83
2018-12-14T02:08:46.371Z,10.38
2018-12-14T02:11:15.051Z,10.80
2018-12-14T02:13:43.808Z,9.85
2018-12-14T02:16:12.496Z,10.28
2018-12-14T02:18:41.221Z,10.45
2018-12-14T02:21:10.043Z,10.05
2018-12-14T02:23:39.104Z,8.93
2018-12-14T02:26:07.800Z,9.38
2018-12-14T02:28:36.893Z,10.63
2018-12-14T02:31:05.623Z,9.73
2018-12-14T02:33:34.423Z,10.60
2018-12-14T02:36:03.152Z,10.23
2018-12-14T02:38:31.930Z,9.50
2018-12-14T02:41:03.742Z,10.72
2018-12-14T02:43:32.592Z,8.55
2018-12-14T02:46:01.323Z,10.25
2018-12-14T02:48:30.020Z,9.55
2018-12-14T02:50:58.786Z,9.25
2018-12-14T02:53:27.457Z,10.40
2018-12-14T02:55:56.168Z,10.20
2018-12-14T02:58:24.974Z,10.18
2018-12-14T03:00:53.802Z,9.78
2018-12-14T03:03:22.722Z,11.00
2018-12-14T03:05:51.535Z,9.45
2018-12-14T03:08:20.226Z,9.53
2018-12-14T03:10:48.940Z,10.08
2018-12-14T03:13:17.752Z,9.88
2018-12-14T03:15:46.483Z,9.10
2018-12-14T03:18:15.209Z,9.70
2018-12-14T03:20:43.914Z,10.20
2018-12-14T03:23:12.607Z,10.30
2018-12-14T03:25:41.615Z,10.10
2018-12-14T03:28:10.628Z,10.18
2018-12-14T03:30:39.353Z,10.20
2018-12-14T03:33:08.237Z,12.70
2018-12-14T03:35:36.941Z,9.38
2018-12-14T03:38:05.620Z,9.15
2018-12-14T03:40:34.355Z,10.98
2018-12-14T03:43:03.052Z,8.95
2018-12-14T03:45:32.575Z,9.60
2018-12-14T03:48:01.248Z,9.60
2018-12-14T03:50:30.599Z,9.58
2018-12-14T03:52:59.345Z,10.05
2018-12-14T03:55:28.052Z,10.00
2018-12-14T03:57:57.243Z,9.90
2018-12-14T04:00:26.486Z,10.48
2018-12-14T04:02:55.551Z,10.05
2018-12-14T04:05:24.718Z,9.95
2018-12-14T04:07:53.393Z,9.65
2018-12-14T04:10:22.097Z,10.28
2018-12-14T04:12:50.884Z,9.13
2018-12-14T04:15:19.584Z,9.10
2018-12-14T04:17:48.247Z,8.83
2018-12-14T04:20:16.996Z,9.05
2018-12-14T04:22:45.674Z,9.08
2018-12-14T04:25:14.508Z,10.18
2018-12-14T04:27:43.198Z,8.73
2018-12-14T04:30:12.134Z,9.93
2018-12-14T04:32:40.899Z,9.28
2018-12-14T04:35:09.663Z,9.73
2018-12-14T04:37:38.475Z,8.13
2018-12-14T04:40:08.063Z,9.85
2018-12-14T04:42:37.186Z,9.85
2018-12-14T04:45:06.827Z,10.03
2018-12-14T04:47:35.572Z,10.75
2018-12-14T04:50:04.509Z,10.00
2018-12-14T04:52:33.248Z,8.88
2018-12-14T04:55:02.123Z,9.90
2018-12-14T04:57:30.823Z,9.10
2018-12-14T04:59:59.565Z,9.33
2018-12-14T05:02:28.398Z,10.58
2018-12-14T05:04:57.244Z,9.90
2018-12-14T05:07:26.072Z,8.98
2018-12-14T05:09:54.832Z,9.85
2018-12-14T05:12:23.560Z,9.40
2018-12-14T05:14:52.617Z,9.25
2018-12-14T05:17:21.410Z,10.15
2018-12-14T05:19:50.303Z,9.03
2018-12-14T05:22:19.037Z,9.50
2018-12-14T05:24:47.973Z,12.05
2018-12-14T05:27:16.718Z,9.55
2018-12-14T05:29:45.971Z,9.75
2018-12-14T05:32:14.660Z,10.32
2018-12-14T05:34:43.424Z,9.00
2018-12-14T05:37:12.103Z,10.43
2018-12-14T05:39:40.821Z,10.08
2018-12-14T05:42:09.667Z,9.80
2018-12-14T05:44:38.368Z,9.63
2018-12-14T05:47:07.355Z,9.15
2018-12-14T05:49:36.232Z,9.93
2018-12-14T05:52:04.939Z,10.23
2018-12-14T05:54:33.707Z,9.53
2018-12-14T05:57:02.888Z,10.18
2018-12-14T05:59:31.734Z,8.78
2018-12-14T06:02:00.448Z,9.98
2018-12-14T06:04:29.171Z,8.90
2018-12-14T06:06:57.928Z,9.40
2018-12-14T06:09:26.688Z,10.35
2018-12-14T06:11:55.491Z,9.75
2018-12-14T06:14:24.353Z,10.23
2018-12-14T06:16:53.112Z,9.48
2018-12-14T06:19:21.824Z,8.15
2018-12-14T06:21:50.580Z,10.03
2018-12-14T06:24:19.291Z,10.38
2018-12-14T06:26:48.068Z,9.88
2018-12-14T06:29:16.843Z,9.28
2018-12-14T06:31:45.624Z,9.05
2018-12-14T06:34:14.748Z,10.32
2018-12-14T06:36:43.608Z,9.48
2018-12-14T06:39:12.304Z,9.78
2018-12-14T06:41:41.736Z,9.60
2018-12-14T06:44:10.784Z,10.20
2018-12-14T06:46:39.481Z,10.30
2018-12-14T06:49:08.543Z,11.45
2018-12-14T06:51:37.603Z,9.83
2018-12-14T06:54:06.887Z,9.53
2018-12-14T06:56:35.831Z,10.13
2018-12-14T06:59:04.786Z,11.00
2018-12-14T07:01:33.476Z,9.15
2018-12-14T07:04:02.199Z,9.30
2018-12-14T07:06:31.059Z,9.38
2018-12-14T07:08:59.773Z,10.00
2018-12-14T07:11:28.507Z,10.72
2018-12-14T07:13:57.420Z,9.40
2018-12-14T07:16:26.383Z,10.18
2018-12-14T07:18:55.095Z,10.03
2018-12-14T07:21:23.987Z,10.45
2018-12-14T07:23:52.693Z,10.90
2018-12-14T07:26:21.459Z,9.58
2018-12-14T07:28:50.903Z,11.30
2018-12-14T07:31:19.593Z,9.55
2018-12-14T07:33:48.521Z,9.43
2018-12-14T07:36:17.378Z,9.85
2018-12-14T07:38:48.273Z,10.23
2018-12-14T07:41:17.244Z,10.55
2018-12-14T07:43:45.976Z,9.95
2018-12-14T07:46:14.723Z,10.53
2018-12-14T07:48:43.621Z,9.00
2018-12-14T07:51:12.408Z,11.05
2018-12-14T07:53:41.139Z,11.33
2018-12-14T07:56:09.931Z,10.43
2018-12-14T07:58:39.142Z,9.50
2018-12-14T08:01:07.847Z,11.05
2018-12-14T08:03:37.069Z,10.72
2018-12-14T08:06:05.761Z,9.80
2018-12-14T08:08:34.560Z,10.53
2018-12-14T08:11:03.427Z,10.23
2018-12-14T08:13:34.752Z,10.88
2018-12-14T08:16:02.970Z,8.83
2018-12-14T08:18:31.714Z,10.10
2018-12-14T08:21:00.413Z,10.43
2018-12-14T08:23:29.128Z,10.05
2018-12-14T08:25:57.896Z,9.65
2018-12-14T08:28:26.607Z,9.13
2018-12-14T08:30:55.296Z,11.95
2018-12-14T08:33:24.045Z,11.90
2018-12-14T08:35:52.872Z,10.93
2018-12-14T08:38:21.603Z,9.83
2018-12-14T08:40:50.287Z,9.65
2018-12-14T08:43:19.157Z,9.40
2018-12-14T08:45:47.877Z,9.90
2018-12-14T08:48:16.604Z,10.30
2018-12-14T08:50:45.447Z,10.23
2018-12-14T08:53:14.648Z,9.13
2018-12-14T08:55:43.351Z,10.28
2018-12-14T08:58:12.061Z,10.03
2018-12-14T09:00:40.773Z,10.98
2018-12-14T09:03:09.471Z,8.58
2018-12-14T09:05:38.240Z,10.08
2018-12-14T09:08:06.939Z,10.50
2018-12-14T09:10:35.703Z,10.10
2018-12-14T09:13:04.445Z,10.53
2018-12-14T09:15:33.416Z,11.33
2018-12-14T09:18:02.352Z,10.60
2018-12-14T09:20:31.302Z,10.03
2018-12-14T09:23:00.720Z,12.07
2018-12-14T09:25:29.500Z,10.68
2018-12-14T09:27:58.203Z,9.98
2018-12-14T09:30:26.996Z,10.40
2018-12-14T09:32:55.872Z,9.70
2018-12-14T09:35:24.683Z,9.48
2018-12-14T09:37:53.568Z,10.23
2018-12-14T09:40:22.400Z,8.90
2018-12-14T09:42:51.351Z,8.73
2018-12-14T09:45:20.107Z,8.83
2018-12-14T09:47:49.018Z,9.70
2018-12-14T09:50:18.111Z,10.13
2018-12-14T09:52:46.837Z,9.73
2018-12-14T09:55:15.519Z,9.98
2018-12-14T09:57:44.247Z,9.30
2018-12-14T10:00:13.095Z,10.30
2018-12-14T10:02:42.368Z,10.68
2018-12-14T10:05:11.275Z,11.22
2018-12-14T10:07:46.656Z,8.70
2018-12-14T10:10:11.715Z,8.40
2018-12-14T10:12:40.487Z,9.70
2018-12-14T10:15:09.466Z,9.50
2018-12-14T10:17:38.299Z,10.32
2018-12-14T10:20:08.876Z,9.50
2018-12-14T10:22:41.556Z,9.70
2018-12-14T10:25:09.075Z,10.10
2018-12-14T10:27:37.776Z,9.95
2018-12-14T10:30:07.670Z,9.70
2018-12-14T10:32:36.507Z,9.13
2018-12-14T10:35:06.341Z,10.88
2018-12-14T10:37:35.325Z,10.30
2018-12-14T10:40:04.731Z,10.05
2018-12-14T10:42:33.523Z,8.13
2018-12-14T10:45:02.277Z,10.35
2018-12-14T10:47:31.000Z,8.60
2018-12-14T10:49:59.748Z,9.08
2018-12-14T10:52:28.383Z,8.27
2018-12-14T10:54:57.166Z,9.53
2018-12-14T10:57:26.027Z,10.40
2018-12-14T10:59:54.773Z,9.88
2018-12-14T11:02:23.545Z,9.77
2018-12-14T11:04:52.157Z,9.67
2018-12-14T11:07:20.952Z,10.03
2018-12-14T11:09:49.722Z,9.97
2018-12-14T11:12:18.452Z,11.05
2018-12-14T11:14:47.157Z,9.70
2018-12-14T11:17:15.839Z,9.37
2018-12-14T11:19:44.515Z,10.13
2018-12-14T11:22:13.321Z,10.30
2018-12-14T11:24:42.049Z,9.80
2018-12-14T11:27:10.680Z,8.80
2018-12-14T11:29:39.460Z,8.95
2018-12-14T11:32:08.087Z,9.60
2018-12-14T11:34:36.880Z,9.08
2018-12-14T11:37:05.506Z,10.40
2018-12-14T11:39:34.207Z,9.15
2018-12-14T11:42:03.089Z,9.48
2018-12-14T11:44:31.797Z,8.38
2018-12-14T11:47:00.515Z,9.70
2018-12-14T11:49:29.322Z,11.13
2018-12-14T11:51:58.088Z,10.00
2018-12-14T11:54:27.068Z,9.30
2018-12-14T11:56:55.888Z,9.45
2018-12-14T11:59:24.711Z,9.30
2018-12-14T12:01:53.549Z,9.40
2018-12-14T12:04:22.280Z,9.48
2018-12-14T12:06:50.941Z,9.80
2018-12-14T12:09:19.617Z,9.10
2018-12-14T12:11:48.398Z,10.57
2018-12-14T12:14:17.180Z,10.95
2018-12-14T12:16:45.987Z,9.28
2018-12-14T12:19:14.707Z,9.63
2018-12-14T12:21:43.687Z,10.75
2018-12-14T12:24:12.361Z,9.40
2018-12-14T12:26:41.051Z,9.43
2018-12-14T12:29:09.689Z,9.73
2018-12-14T12:31:38.378Z,8.40
2018-12-14T12:34:07.153Z,9.67
2018-12-14T12:36:35.851Z,9.03
2018-12-14T12:39:06.680Z,8.95
2018-12-14T12:41:35.357Z,8.97
2018-12-14T12:44:04.108Z,8.33
2018-12-14T12:46:32.868Z,9.93
2018-12-14T12:49:01.546Z,9.80
2018-12-14T12:51:30.844Z,7.87
2018-12-14T12:54:00.396Z,11.23
2018-12-14T12:56:30.353Z,9.10
2018-12-14T12:58:59.961Z,10.63
2018-12-14T13:01:29.490Z,8.53
2018-12-14T13:03:59.319Z,9.80
2018-12-14T13:06:28.902Z,8.07
2018-12-14T13:08:58.441Z,8.70
2018-12-14T13:11:28.023Z,9.73
2018-12-14T13:13:57.498Z,8.87
2018-12-14T13:16:27.413Z,8.47
2018-12-14T13:18:57.113Z,8.50
2018-12-14T13:21:26.826Z,8.63
2018-12-14T13:23:56.535Z,8.77
2018-12-14T13:26:26.474Z,9.20
2018-12-14T13:29:06.951Z,10.30
2018-12-14T13:31:37.464Z,9.17
2018-12-14T13:34:07.319Z,9.60
2018-12-14T13:36:36.777Z,9.30
2018-12-14T13:39:10.573Z,9.53
2018-12-14T13:41:40.341Z,9.43
2018-12-14T13:44:09.901Z,9.33
2018-12-14T13:46:39.817Z,8.23
2018-12-14T13:49:09.394Z,10.28
2018-12-14T13:51:39.138Z,9.40
2018-12-14T13:54:08.646Z,9.30
2018-12-14T13:56:38.278Z,9.40
2018-12-14T13:59:07.712Z,9.40
2018-12-14T14:01:37.157Z,9.53
2018-12-14T14:04:05.752Z,9.40
2018-12-14T14:06:34.462Z,10.30
2018-12-14T14:09:03.495Z,9.40
2018-12-14T14:11:32.260Z,9.78
2018-12-14T14:14:00.973Z,8.20
2018-12-14T14:16:29.634Z,8.63
2018-12-14T14:18:58.351Z,8.35
2018-12-14T14:21:27.185Z,7.55
2018-12-14T14:23:55.927Z,7.85
2018-12-14T14:26:24.832Z,6.95
2018-12-14T14:28:53.764Z,7.70
2018-12-14T14:31:22.697Z,6.42
2018-12-14T14:33:51.424Z,7.22
2018-12-14T14:36:20.137Z,6.20
2018-12-14T14:38:48.856Z,6.87
2018-12-14T14:41:17.600Z,7.78
2018-12-14T14:43:46.491Z,5.83
2018-12-14T14:46:15.442Z,6.33
2018-12-14T14:48:44.272Z,6.90
2018-12-14T14:51:13.351Z,8.13
2018-12-14T14:53:42.221Z,7.17
2018-12-14T14:56:11.187Z,7.85
2018-12-14T14:58:39.861Z,9.08
2018-12-14T15:01:08.630Z,8.45
2018-12-14T15:03:37.483Z,7.60
2018-12-14T15:06:06.214Z,8.88
2018-12-14T15:08:34.962Z,8.40
2018-12-14T15:11:03.675Z,9.05
2018-12-14T15:13:32.480Z,7.92
2018-12-14T15:16:01.105Z,9.07
2018-12-14T15:18:30.224Z,8.80
2018-12-14T15:20:58.970Z,8.18
2018-12-14T15:23:27.716Z,7.92
2018-12-14T15:25:56.379Z,8.20
2018-12-14T15:28:25.079Z,8.93
2018-12-14T15:30:53.944Z,8.30
2018-12-14T15:33:22.764Z,7.87
2018-12-14T15:35:51.622Z,7.92
2018-12-14T15:38:20.323Z,8.33
2018-12-14T15:40:49.180Z,7.42
2018-12-14T15:43:17.875Z,6.97
2018-12-14T15:45:46.639Z,7.65
2018-12-14T15:48:15.535Z,7.87
2018-12-14T15:50:44.351Z,7.53
2018-12-14T15:53:13.060Z,7.20
2018-12-14T15:55:41.769Z,9.40
2018-12-14T15:58:10.480Z,7.67
2018-12-14T16:00:39.267Z,8.03
2018-12-14T16:03:08.009Z,8.70
2018-12-14T16:05:36.863Z,7.25
2018-12-14T16:08:05.650Z,7.72
2018-12-14T16:10:34.409Z,9.18
2018-12-14T16:13:03.228Z,9.35
2018-12-14T16:15:32.090Z,9.05
2018-12-14T16:18:00.872Z,8.15
2018-12-14T16:20:29.629Z,8.18
2018-12-14T16:22:58.411Z,8.38
2018-12-14T16:25:27.353Z,6.72
2018-12-14T16:27:56.286Z,7.25
2018-12-14T16:30:25.031Z,7.47
2018-12-14T16:32:53.984Z,7.80
2018-12-14T16:35:22.962Z,7.03
2018-12-14T16:37:52.264Z,7.30
2018-12-14T16:40:21.021Z,7.87
2018-12-14T16:42:49.911Z,6.78
2018-12-14T16:45:18.748Z,6.53
2018-12-14T16:47:47.596Z,7.28
2018-12-14T16:50:16.311Z,6.42
2018-12-14T16:52:45.196Z,6.50
2018-12-14T16:55:13.888Z,7.12
2018-12-14T16:57:42.595Z,6.15
2018-12-14T17:00:11.663Z,6.00
2018-12-14T17:02:40.313Z,7.13
2018-12-14T17:05:09.097Z,7.60
2018-12-14T17:07:37.868Z,7.00
2018-12-14T17:10:07.197Z,7.10
2018-12-14T17:12:35.836Z,6.23
2018-12-14T17:15:05.320Z,6.55
2018-12-14T17:17:34.366Z,5.87
2018-12-14T17:20:03.022Z,5.60
2018-12-14T17:22:31.656Z,5.90
2018-12-14T17:25:00.643Z,5.85
2018-12-14T17:27:29.595Z,5.58
2018-12-14T17:29:58.201Z,6.03
2018-12-14T17:32:26.951Z,6.65
2018-12-14T17:34:55.655Z,5.17
2018-12-14T17:37:24.359Z,5.80
2018-12-14T17:39:53.172Z,6.20
2018-12-14T17:42:21.986Z,6.45
2018-12-14T17:44:50.717Z,5.70
2018-12-14T17:47:19.455Z,6.00
2018-12-14T17:49:48.171Z,5.08
2018-12-14T17:52:16.879Z,6.40
2018-12-14T17:54:45.632Z,6.30
2018-12-14T17:57:14.417Z,6.20
2018-12-14T17:59:43.122Z,5.30
2018-12-14T18:02:11.931Z,6.10
2018-12-14T18:04:40.785Z,6.33
2018-12-14T18:07:09.889Z,6.17
2018-12-14T18:09:38.638Z,5.78
2018-12-14T18:12:07.480Z,5.50
2018-12-14T18:14:36.228Z,6.10
2018-12-14T18:17:05.038Z,6.08
2018-12-14T18:19:33.753Z,5.40
2018-12-14T18:22:02.565Z,6.90
2018-12-14T18:24:31.381Z,6.33
2018-12-14T18:27:00.193Z,6.28
2018-12-14T18:29:28.943Z,6.03
2018-12-14T18:31:57.819Z,6.22
2018-12-14T18:34:26.765Z,6.40
2018-12-14T18:36:55.581Z,6.10
2018-12-14T18:39:24.383Z,6.50
2018-12-14T18:41:53.193Z,6.78
2018-12-14T18:44:21.985Z,5.58
2018-12-14T18:46:50.753Z,5.55
2018-12-14T18:49:19.536Z,7.10
2018-12-14T18:51:48.316Z,5.03
2018-12-14T18:54:17.676Z,5.87
2018-12-14T18:56:46.413Z,5.53
2018-12-14T18:59:15.326Z,7.03
2018-12-14T19:01:44.052Z,5.35
2018-12-14T19:04:12.961Z,5.40
2018-12-14T19:06:41.733Z,5.40
2018-12-14T19:09:10.629Z,6.00
2018-12-14T19:11:39.343Z,6.00
2018-12-14T19:14:08.094Z,7.00
2018-12-14T19:16:36.929Z,5.62
2018-12-14T19:19:05.667Z,6.47
2018-12-14T19:21:34.449Z,6.20
2018-12-14T19:24:03.144Z,6.97
2018-12-14T19:26:31.943Z,6.72
2018-12-14T19:29:02.062Z,6.42
2018-12-14T19:31:31.104Z,6.55
2018-12-14T19:33:59.815Z,6.22
2018-12-14T19:36:28.661Z,6.00
2018-12-14T19:38:57.508Z,6.90
2018-12-14T19:41:26.330Z,6.87
2018-12-14T19:43:55.245Z,7.67
2018-12-14T19:46:24.171Z,5.37
2018-12-14T19:48:55.819Z,5.72
2018-12-14T19:51:24.667Z,7.53
2018-12-14T19:53:53.362Z,6.53
2018-12-14T19:56:22.216Z,5.70
2018-12-14T19:58:50.985Z,7.55
2018-12-14T20:01:19.827Z,6.95
2018-12-14T20:03:48.508Z,6.20
2018-12-14T20:06:17.243Z,7.03
2018-12-14T20:08:45.958Z,7.35
2018-12-14T20:11:14.755Z,8.03
2018-12-14T20:13:43.535Z,7.12
2018-12-14T20:16:12.944Z,8.43
2018-12-14T20:18:41.814Z,7.85
2018-12-14T20:21:10.519Z,7.25
2018-12-14T20:23:40.064Z,7.17
2018-12-14T20:26:08.935Z,8.38
2018-12-14T20:28:37.881Z,7.90
2018-12-14T20:31:06.948Z,7.17
2018-12-14T20:33:35.643Z,6.83
2018-12-14T20:36:04.717Z,8.40
2018-12-14T20:38:33.616Z,7.40
2018-12-14T20:41:02.514Z,7.85
2018-12-14T20:43:31.225Z,8.50
2018-12-14T20:46:00.067Z,7.17
2018-12-14T20:48:28.762Z,6.28
2018-12-14T20:50:57.499Z,7.90
2018-12-14T20:53:26.735Z,7.58
2018-12-14T20:55:55.561Z,6.85
2018-12-14T20:58:24.312Z,7.47
2018-12-14T21:00:53.059Z,7.15
2018-12-14T21:03:23.939Z,7.83
2018-12-14T21:05:52.753Z,7.40
2018-12-14T21:08:21.494Z,7.40
2018-12-14T21:10:50.295Z,7.60
2018-12-14T21:13:19.145Z,7.42
2018-12-14T21:15:47.931Z,7.05
2018-12-14T21:18:16.734Z,6.20
2018-12-14T21:20:45.715Z,7.45
2018-12-14T21:23:14.768Z,6.83
2018-12-14T21:25:43.633Z,6.95
2018-12-14T21:28:12.535Z,7.60
2018-12-14T21:30:41.223Z,6.13
2018-12-14T21:33:09.948Z,5.62
2018-12-14T21:35:38.752Z,5.92
2018-12-14T21:38:07.511Z,5.75
2018-12-14T21:40:36.347Z,7.42
2018-12-14T21:43:05.068Z,6.80
2018-12-14T21:45:33.889Z,6.70
2018-12-14T21:48:02.638Z,7.42
2018-12-14T21:50:31.500Z,6.87
2018-12-14T21:53:00.335Z,7.47
2018-12-14T21:55:29.275Z,7.15
2018-12-14T21:57:58.039Z,8.50
2018-12-14T22:00:26.827Z,6.30
2018-12-14T22:02:55.884Z,7.58
2018-12-14T22:05:24.711Z,7.45
2018-12-14T22:07:53.497Z,6.85
2018-12-14T22:10:22.264Z,6.90
2018-12-14T22:12:50.973Z,8.20
2018-12-14T22:15:19.730Z,7.30
2018-12-14T22:17:48.457Z,6.80
2018-12-14T22:20:17.225Z,7.62
2018-12-14T22:22:45.990Z,7.87
2018-12-14T22:25:14.720Z,7.20
2018-12-14T22:27:43.452Z,7.28
2018-12-14T22:30:12.383Z,8.18
2018-12-14T22:32:41.496Z,7.00
2018-12-14T22:35:10.271Z,7.62
2018-12-14T22:37:39.099Z,7.93
2018-12-14T22:40:08.655Z,6.58
2018-12-14T22:42:37.404Z,7.62
2018-12-14T22:45:07.035Z,7.62
2018-12-14T22:47:35.740Z,6.53
2018-12-14T22:50:05.196Z,7.35
2018-12-14T22:52:34.024Z,9.90
2018-12-14T22:55:02.880Z,7.95
2018-12-14T22:57:31.607Z,11.93
2018-12-14T23:00:00.361Z,8.35
2018-12-14T23:02:29.176Z,7.55
2018-12-14T23:04:57.931Z,6.45
2018-12-14T23:07:26.755Z,8.28
2018-12-14T23:09:55.527Z,8.00
2018-12-14T23:12:24.163Z,8.10
2018-12-14T23:14:53.115Z,6.85
2018-12-14T23:17:21.899Z,13.25
2018-12-14T23:19:50.710Z,18.32
2018-12-14T23:22:19.548Z,37.78
2018-12-14T23:24:48.287Z,12.53
2018-12-14T23:27:17.003Z,19.37
2018-12-14T23:29:45.736Z,22.73
2018-12-14T23:32:14.471Z,37.05
2018-12-14T23:34:43.112Z,25.80
2018-12-14T23:37:14.047Z,12.35
2018-12-14T23:39:42.675Z,9.00
2018-12-14T23:42:11.395Z,12.47
2018-12-14T23:44:40.264Z,8.23
2018-12-14T23:47:09.063Z,7.65
2018-12-14T23:49:38.016Z,8.13
2018-12-14T23:52:06.829Z,9.58
2018-12-14T23:54:35.592Z,7.83
2018-12-14T23:57:04.392Z,8.78
2018-12-14T23:59:33.083Z,13.20
